Terminal Aerodrome Forecast
Issued by NWS

Home | Current Version | Previous Version | Text Only | Print | Product List | Glossary On
Versions: 1 2 3 4 5 6 7 8 9 10 11 12 13 14 15 16 17
889
FTAK31 PAJN 280539
TAFAYA
TAF
PAYA 280539Z 2806/2906 15011KT 4SM -SHRA BR OVC015 WS020/13025KT
     FM281600 12010KT 6SM -SHRA BR OVC015 WS020/13025KT
     FM290400 10010KT P6SM -SHRA OVC025 WS020/13030KT
      AMD LTD TO CLD VIS AND WIND 2806/2809=

USA.gov is the U.S. government's official web portal to all federal, state and local government web resources and services.